Airport Name : Fort Nelson

Other Name : Fort Nelson

ICAO : CYYE

IATA : YYE

FAA :

Latitude : 58.836389

Longitude : -122.596944

Country : Canada

Local Date and Time : 16 Jun 2024 17:13

 

TAF (Terminal Aerodrome Forecast)

TAF CYYE 161840Z 1619/1707 VRB03KT P6SM BKN060 TEMPO 1619/1621 P6SM -SHRA FM162100 32010G20KT P6SM BKN060 TEMPO 1621/1624 VRB15G25KT P6SM VCTS BKN060CB FM170100 32006KT P6SM SCT060 RMK NXT FCST BY 170100Z

 

METAR (METeorological Aerodrome Report)

CYYE 170000Z 36015G21KT 320V030 30SM BKN083 BKN200 19/M02 A2992 RMK CU5CI2 SLP144 DENSITY ALT 2000FT

CYYE 162300Z 33013G19KT 20SM BKN071 BKN091 BKN200 17/M01 A2994 RMK CU5AC1CI1 SLP150 DENSITY ALT 1800FT

CYYE 162200Z 32013G19KT 280V350 30SM SCT068 BKN200 17/01 A2995 RMK CU3CS3 SLP155 DENSITY ALT 1800FT

CYYE 162120Z 36013G20KT 300V020 30SM SCT063 BKN100 BKN200 16/01 A2996 RMK CU3AC2CS2 WSHFT 2111 SLP158 DENSITY ALT 1700FT

CYYE 162100Z 31009G18KT 290V350 30SM SCT063 BKN100 BKN200 16/02 A2996 RMK CU3AC2CI1 SLP158 DENSITY ALT 1700FT